DFAYX EDFZ-EDGS
Flight info
| Callsign | DFAYX |
|---|---|
| Flight time | 0h 21m |
| Altitude | 13000 |
| Route | RUDUS/N0279F130 IFR Z10 TABUM TABUM3A |
| Aircraft | TBM8/L-SDFGRWY/S |
Departure
| Time | 2026-04-27 19:14 |
|---|---|
| Airport | Mainz-Finthen Airfield (EDFZ) |
Arrival
| Time | 2026-04-27 19:35 |
|---|---|
| Airport | Siegerland Airport (EDGS) |
| Time | Latitude | Longitude | Altitude | Speed | Heading |
|---|---|---|---|---|---|
| 2026-04-27 19:08 | 49.97128 | 8.15045 | 758 ft | 0 kts | 254° |
| 2026-04-27 19:11 | 49.97118 | 8.15018 | 758 ft | 11 kts | 235° |
| 2026-04-27 19:11 | 49.97081 | 8.14886 | 757 ft | 13 kts | 255° |
| 2026-04-27 19:12 | 49.97059 | 8.14765 | 758 ft | 10 kts | 254° |
| 2026-04-27 19:12 | 49.97040 | 8.14654 | 757 ft | 15 kts | 258° |
| 2026-04-27 19:12 | 49.96989 | 8.14370 | 759 ft | 38 kts | 253° |
| 2026-04-27 19:12 | 49.96906 | 8.14084 | 759 ft | 17 kts | 185° |
| 2026-04-27 19:13 | 49.96810 | 8.14120 | 755 ft | 14 kts | 143° |
| 2026-04-27 19:13 | 49.96853 | 8.14439 | 760 ft | 59 kts | 75° |
| 2026-04-27 19:13 | 49.97003 | 8.15320 | 844 ft | 102 kts | 77° |
| 2026-04-27 19:13 | 49.97121 | 8.16509 | 1161 ft | 119 kts | 82° |
| 2026-04-27 19:14 | 49.96907 | 8.17656 | 1772 ft | 117 kts | 142° |
| 2026-04-27 19:14 | 49.96105 | 8.17813 | 2370 ft | 118 kts | 176° |
| 2026-04-27 19:14 | 49.95278 | 8.17453 | 2761 ft | 140 kts | 215° |
| 2026-04-27 19:14 | 49.94463 | 8.16392 | 2993 ft | 166 kts | 227° |
| 2026-04-27 19:15 | 49.94041 | 8.14629 | 3140 ft | 191 kts | 275° |
| 2026-04-27 19:15 | 49.94676 | 8.12781 | 3213 ft | 207 kts | 326° |
| 2026-04-27 19:15 | 49.96002 | 8.11883 | 3235 ft | 218 kts | 347° |
| 2026-04-27 19:15 | 49.97500 | 8.11265 | 3225 ft | 226 kts | 349° |
| 2026-04-27 19:16 | 49.99044 | 8.10650 | 3217 ft | 232 kts | 349° |
| 2026-04-27 19:16 | 50.00103 | 8.10201 | 3208 ft | 234 kts | 345° |
| 2026-04-27 19:16 | 50.02154 | 8.09062 | 3202 ft | 237 kts | 342° |
| 2026-04-27 19:16 | 50.03737 | 8.08430 | 3188 ft | 234 kts | 359° |
| 2026-04-27 19:17 | 50.05311 | 8.08893 | 3188 ft | 231 kts | 25° |
| 2026-04-27 19:17 | 50.06590 | 8.10342 | 3192 ft | 228 kts | 50° |
| 2026-04-27 19:17 | 50.07654 | 8.12167 | 3309 ft | 223 kts | 42° |
| 2026-04-27 19:17 | 50.08843 | 8.13577 | 3804 ft | 208 kts | 37° |
| 2026-04-27 19:18 | 50.09975 | 8.14906 | 4299 ft | 199 kts | 39° |
| 2026-04-27 19:18 | 50.11042 | 8.16230 | 4817 ft | 194 kts | 40° |
| 2026-04-27 19:18 | 50.12069 | 8.17582 | 5235 ft | 196 kts | 41° |
| 2026-04-27 19:18 | 50.13125 | 8.18999 | 5483 ft | 204 kts | 41° |
| 2026-04-27 19:19 | 50.14218 | 8.20472 | 5729 ft | 210 kts | 41° |
| 2026-04-27 19:19 | 50.15333 | 8.21975 | 5989 ft | 213 kts | 41° |
| 2026-04-27 19:19 | 50.16460 | 8.23489 | 6139 ft | 221 kts | 41° |
| 2026-04-27 19:19 | 50.17651 | 8.25099 | 6163 ft | 231 kts | 41° |
| 2026-04-27 19:20 | 50.18844 | 8.26709 | 6598 ft | 220 kts | 40° |
| 2026-04-27 19:20 | 50.19983 | 8.28228 | 7078 ft | 211 kts | 40° |
| 2026-04-27 19:20 | 50.21089 | 8.29698 | 7571 ft | 206 kts | 40° |
| 2026-04-27 19:20 | 50.22167 | 8.31137 | 8072 ft | 202 kts | 39° |
| 2026-04-27 19:21 | 50.23230 | 8.32561 | 8579 ft | 200 kts | 38° |
| 2026-04-27 19:21 | 50.24281 | 8.33971 | 9096 ft | 198 kts | 39° |
| 2026-04-27 19:21 | 50.25327 | 8.35378 | 9622 ft | 197 kts | 39° |
| 2026-04-27 19:21 | 50.26359 | 8.36769 | 10141 ft | 196 kts | 38° |
| 2026-04-27 19:22 | 50.27388 | 8.38157 | 10625 ft | 195 kts | 38° |
| 2026-04-27 19:22 | 50.28413 | 8.39532 | 11122 ft | 194 kts | 36° |
| 2026-04-27 19:22 | 50.29578 | 8.40511 | 11630 ft | 189 kts | 13° |
| 2026-04-27 19:22 | 50.30859 | 8.40855 | 12142 ft | 186 kts | 2° |
| 2026-04-27 19:23 | 50.32142 | 8.41108 | 12662 ft | 185 kts | 2° |
| 2026-04-27 19:23 | 50.33399 | 8.41355 | 13122 ft | 188 kts | 2° |
| 2026-04-27 19:23 | 50.34784 | 8.41623 | 13167 ft | 212 kts | 3° |
| 2026-04-27 19:23 | 50.36311 | 8.41939 | 13183 ft | 231 kts | 4° |
| 2026-04-27 19:24 | 50.37955 | 8.42290 | 13190 ft | 244 kts | 4° |
| 2026-04-27 19:24 | 50.39681 | 8.42655 | 13196 ft | 254 kts | 4° |
| 2026-04-27 19:24 | 50.41489 | 8.43031 | 12813 ft | 273 kts | 5° |
| 2026-04-27 19:24 | 50.43378 | 8.43455 | 12120 ft | 264 kts | 7° |
| 2026-04-27 19:25 | 50.45038 | 8.43896 | 11363 ft | 224 kts | 6° |
| 2026-04-27 19:25 | 50.46500 | 8.44197 | 10610 ft | 202 kts | 4° |
| 2026-04-27 19:25 | 50.47843 | 8.44391 | 9864 ft | 191 kts | 2° |
| 2026-04-27 19:25 | 50.49142 | 8.44581 | 9069 ft | 184 kts | 4° |
| 2026-04-27 19:26 | 50.50416 | 8.44807 | 8285 ft | 180 kts | 5° |
| 2026-04-27 19:26 | 50.51629 | 8.44838 | 7533 ft | 174 kts | 348° |
| 2026-04-27 19:26 | 50.52695 | 8.43980 | 6786 ft | 171 kts | 317° |
| 2026-04-27 19:26 | 50.53480 | 8.42540 | 6504 ft | 185 kts | 307° |
| 2026-04-27 19:27 | 50.54333 | 8.40937 | 6258 ft | 196 kts | 312° |
| 2026-04-27 19:27 | 50.55266 | 8.39313 | 6033 ft | 202 kts | 310° |
| 2026-04-27 19:27 | 50.56164 | 8.37532 | 6013 ft | 214 kts | 307° |
| 2026-04-27 19:27 | 50.57093 | 8.35651 | 6002 ft | 221 kts | 309° |
| 2026-04-27 19:28 | 50.58061 | 8.33742 | 5993 ft | 225 kts | 309° |
| 2026-04-27 19:28 | 50.59060 | 8.31767 | 5690 ft | 232 kts | 309° |
| 2026-04-27 19:28 | 50.60061 | 8.29777 | 5355 ft | 232 kts | 309° |
| 2026-04-27 19:28 | 50.60716 | 8.28457 | 5142 ft | 231 kts | 309° |
| 2026-04-27 19:29 | 50.61703 | 8.26455 | 4807 ft | 230 kts | 309° |
| 2026-04-27 19:29 | 50.62694 | 8.24482 | 4481 ft | 229 kts | 309° |
| 2026-04-27 19:29 | 50.63618 | 8.22659 | 4172 ft | 187 kts | 311° |
| 2026-04-27 19:29 | 50.64331 | 8.21210 | 3941 ft | 154 kts | 308° |
| 2026-04-27 19:30 | 50.64943 | 8.19877 | 3731 ft | 150 kts | 309° |
| 2026-04-27 19:30 | 50.65610 | 8.18608 | 3522 ft | 150 kts | 315° |
| 2026-04-27 19:30 | 50.66292 | 8.17363 | 3324 ft | 151 kts | 312° |
| 2026-04-27 19:30 | 50.66931 | 8.16049 | 3125 ft | 151 kts | 311° |
| 2026-04-27 19:31 | 50.67279 | 8.14558 | 3040 ft | 147 kts | 264° |
| 2026-04-27 19:31 | 50.67162 | 8.12988 | 3015 ft | 142 kts | 263° |
| 2026-04-27 19:31 | 50.67053 | 8.11451 | 2998 ft | 140 kts | 264° |
| 2026-04-27 19:31 | 50.66944 | 8.09940 | 2998 ft | 138 kts | 266° |
| 2026-04-27 19:32 | 50.67238 | 8.08606 | 2987 ft | 129 kts | 316° |
| 2026-04-27 19:32 | 50.67793 | 8.07489 | 2969 ft | 129 kts | 311° |
| 2026-04-27 19:32 | 50.68319 | 8.06370 | 2978 ft | 129 kts | 310° |
| 2026-04-27 19:32 | 50.68850 | 8.05233 | 2983 ft | 129 kts | 311° |
| 2026-04-27 19:33 | 50.69385 | 8.04101 | 2979 ft | 127 kts | 311° |
| 2026-04-27 19:33 | 50.69739 | 8.03363 | 3001 ft | 126 kts | 311° |
| 2026-04-27 19:33 | 50.70727 | 8.02630 | 2887 ft | 116 kts | 16° |
| 2026-04-27 19:33 | 50.71359 | 8.03200 | 2753 ft | 105 kts | 40° |
| 2026-04-27 19:34 | 50.71909 | 8.03969 | 2625 ft | 94 kts | 51° |
| 2026-04-27 19:34 | 50.72181 | 8.04855 | 2425 ft | 91 kts | 81° |
| 2026-04-27 19:34 | 50.72027 | 8.05799 | 2254 ft | 91 kts | 125° |
| 2026-04-27 19:34 | 50.71639 | 8.06548 | 2137 ft | 89 kts | 126° |
| 2026-04-27 19:35 | 50.71259 | 8.07303 | 1988 ft | 83 kts | 125° |
| 2026-04-27 19:35 | 50.70973 | 8.07886 | 1968 ft | 47 kts | 126° |
| 2026-04-27 19:35 | 50.70855 | 8.08119 | 1958 ft | 18 kts | 124° |
| 2026-04-27 19:35 | 50.70787 | 8.08254 | 1949 ft | 13 kts | 131° |
| 2026-04-27 19:36 | 50.70727 | 8.08309 | 1946 ft | 10 kts | 216° |
| 2026-04-27 19:36 | 50.70724 | 8.08239 | 1948 ft | 3 kts | 272° |
| 2026-04-27 19:36 | 50.70724 | 8.08233 | 1949 ft | 0 kts | 272° |
| 2026-04-27 19:36 | 50.70710 | 8.08108 | 1957 ft | 23 kts | 225° |
| 2026-04-27 19:37 | 50.70735 | 8.07928 | 1966 ft | 16 kts | 310° |
| 2026-04-27 19:37 | 50.70769 | 8.07808 | 1973 ft | 15 kts | 236° |
| 2026-04-27 19:37 | 50.70783 | 8.07770 | 1974 ft | 0 kts | 43° |